createdAt,value
2023-02-14T00:00:05.853Z,11.95
2023-02-14T00:05:09.976Z,14.60
2023-02-14T00:10:11.642Z,12.30
2023-02-14T00:15:25.491Z,12.15
2023-02-14T00:20:28.304Z,11.98
2023-02-14T00:25:29.900Z,9.93
2023-02-14T00:30:31.673Z,14.25
2023-02-14T00:35:33.391Z,12.18
2023-02-14T00:40:35.012Z,13.02
2023-02-14T00:45:36.695Z,13.25
2023-02-14T00:50:38.339Z,14.43
2023-02-14T00:55:40.203Z,12.82
2023-02-14T01:00:43.188Z,12.82
2023-02-14T01:05:44.867Z,12.90
2023-02-14T01:10:46.986Z,13.52
2023-02-14T01:15:51.238Z,12.18
2023-02-14T01:20:52.837Z,13.43
2023-02-14T01:25:54.583Z,11.13
2023-02-14T01:30:56.206Z,11.05
2023-02-14T01:35:58.445Z,15.60
2023-02-14T01:41:00.381Z,12.52
2023-02-14T01:46:02.237Z,12.15
2023-02-14T01:51:03.997Z,15.73
2023-02-14T01:56:08.766Z,12.10
2023-02-14T02:01:13.542Z,12.48
2023-02-14T02:06:18.110Z,11.88
2023-02-14T02:11:19.753Z,12.88
2023-02-14T02:16:33.585Z,13.05
2023-02-14T02:22:22.789Z,11.85
2023-02-14T02:27:26.418Z,12.45
2023-02-14T02:32:57.619Z,11.73
2023-02-14T02:38:27.141Z,14.77
2023-02-14T02:43:46.609Z,14.13
2023-02-14T02:49:02.407Z,14.15
2023-02-14T02:54:10.077Z,13.85
2023-02-14T02:59:20.908Z,11.25
2023-02-14T03:04:47.187Z,12.82
2023-02-14T03:09:51.336Z,14.68
2023-02-14T03:15:07.044Z,12.85
2023-02-14T03:20:21.362Z,13.75
2023-02-14T03:25:25.873Z,11.98
2023-02-14T03:30:50.659Z,13.65
2023-02-14T03:36:17.570Z,10.90
2023-02-14T03:41:22.639Z,11.55
2023-02-14T03:46:28.781Z,9.85
2023-02-14T03:51:34.421Z,11.23
2023-02-14T03:56:57.822Z,11.10
2023-02-14T04:02:11.209Z,9.27
2023-02-14T04:07:20.461Z,9.63
2023-02-14T04:12:36.852Z,8.68
2023-02-14T04:17:58.082Z,8.40
2023-02-14T04:23:01.310Z,9.63
2023-02-14T04:28:04.027Z,10.07
2023-02-14T04:33:07.954Z,9.05
2023-02-14T04:38:09.553Z,11.35
2023-02-14T04:43:11.213Z,9.63
2023-02-14T04:48:12.835Z,10.65
2023-02-14T04:53:14.496Z,10.05
2023-02-14T04:58:18.073Z,10.45
2023-02-14T05:03:19.685Z,10.30
2023-02-14T05:08:21.269Z,10.65
2023-02-14T05:13:23.404Z,8.02
2023-02-14T05:18:26.114Z,7.32
2023-02-14T05:23:27.748Z,11.25
2023-02-14T05:28:29.937Z,10.73
2023-02-14T05:33:31.544Z,9.98
2023-02-14T05:38:34.859Z,8.98
2023-02-14T05:43:36.535Z,10.25
2023-02-14T05:48:38.189Z,8.95
2023-02-14T05:53:39.894Z,8.85
2023-02-14T05:58:41.637Z,7.53
2023-02-14T06:03:43.279Z,8.02
2023-02-14T06:08:44.965Z,10.50
2023-02-14T06:13:46.619Z,8.10
2023-02-14T06:18:48.311Z,8.75
2023-02-14T06:23:50.028Z,9.27
2023-02-14T06:28:55.676Z,9.68
2023-02-14T06:33:57.509Z,8.57
2023-02-14T06:38:59.116Z,8.75
2023-02-14T06:44:00.812Z,9.75
2023-02-14T06:49:02.478Z,10.85
2023-02-14T06:54:04.262Z,8.13
2023-02-14T06:59:06.384Z,6.97
2023-02-14T07:04:08.090Z,7.90
2023-02-14T07:09:09.773Z,9.77
2023-02-14T07:14:12.107Z,10.07
2023-02-14T07:19:13.885Z,11.25
2023-02-14T07:24:15.627Z,11.75
2023-02-14T07:29:17.361Z,11.40
2023-02-14T07:34:18.985Z,11.13
2023-02-14T07:39:20.604Z,13.30
2023-02-14T07:44:22.600Z,11.85
2023-02-14T07:49:24.229Z,10.75
2023-02-14T07:54:25.863Z,11.77
2023-02-14T07:59:27.484Z,10.68
2023-02-14T08:04:29.269Z,9.77
2023-02-14T08:09:30.938Z,10.10
2023-02-14T08:14:32.692Z,11.20
2023-02-14T08:19:34.498Z,10.38
2023-02-14T08:24:36.125Z,11.88
2023-02-14T08:29:37.830Z,9.02
2023-02-14T08:34:39.456Z,11.93
2023-02-14T08:39:41.088Z,8.55
2023-02-14T08:44:42.898Z,10.18
2023-02-14T08:49:44.542Z,9.40
2023-02-14T08:54:46.192Z,9.13
2023-02-14T08:59:48.519Z,8.95
2023-02-14T09:04:50.230Z,9.68
2023-02-14T09:09:51.873Z,9.80
2023-02-14T09:14:53.546Z,8.02
2023-02-14T09:19:55.145Z,7.22
2023-02-14T09:24:56.892Z,6.72
2023-02-14T09:29:58.696Z,17.92
2023-02-14T09:35:00.485Z,8.02
2023-02-14T09:40:02.341Z,9.18
2023-02-14T09:45:12.936Z,7.65
2023-02-14T09:50:22.777Z,7.82
2023-02-14T09:55:27.817Z,9.07
2023-02-14T10:00:35.890Z,9.15
2023-02-14T10:06:02.453Z,8.40
2023-02-14T10:11:06.929Z,9.18
2023-02-14T10:16:22.151Z,8.45
2023-02-14T10:21:47.896Z,8.05
2023-02-14T10:26:50.883Z,9.30
2023-02-14T10:31:58.427Z,8.63
2023-02-14T10:37:44.729Z,8.30
2023-02-14T10:43:01.531Z,7.72
2023-02-14T10:48:09.745Z,8.18
2023-02-14T10:53:36.438Z,8.60
2023-02-14T10:58:39.426Z,8.25
2023-02-14T11:03:51.731Z,8.35
2023-02-14T11:08:55.548Z,7.65
2023-02-14T11:13:58.030Z,6.32
2023-02-14T11:19:14.866Z,6.93
2023-02-14T11:24:37.390Z,8.15
2023-02-14T11:29:38.924Z,7.53
2023-02-14T11:35:02.115Z,6.53
2023-02-14T11:40:05.281Z,9.02
2023-02-14T11:45:07.593Z,7.50
2023-02-14T11:50:24.747Z,7.82
2023-02-14T11:55:29.643Z,8.57
2023-02-14T12:00:31.787Z,8.57
2023-02-14T12:05:45.156Z,8.20
2023-02-14T12:11:04.791Z,8.10
2023-02-14T12:16:21.770Z,8.68
2023-02-14T12:21:57.204Z,7.05
2023-02-14T12:27:28.425Z,7.18
2023-02-14T12:32:31.532Z,7.25
2023-02-14T12:38:12.034Z,7.60
2023-02-14T12:43:23.305Z,8.02
2023-02-14T12:48:47.168Z,7.55
2023-02-14T12:54:08.989Z,8.82
2023-02-14T12:59:22.106Z,6.68
2023-02-14T13:09:51.420Z,7.38
2023-02-14T13:15:15.540Z,7.55
2023-02-14T13:20:52.490Z,7.68
2023-02-14T13:26:24.991Z,8.27
2023-02-14T13:31:27.456Z,7.82
2023-02-14T13:36:29.698Z,7.82
2023-02-14T13:41:31.651Z,7.35
2023-02-14T13:46:33.257Z,8.38
2023-02-14T13:52:03.827Z,7.65
2023-02-14T13:57:36.652Z,8.02
2023-02-14T14:02:50.036Z,6.93
2023-02-14T14:08:20.350Z,6.18
2023-02-14T14:13:39.944Z,6.70
2023-02-14T14:18:43.169Z,6.53
2023-02-14T14:23:44.884Z,5.75
2023-02-14T14:28:46.646Z,5.75
2023-02-14T14:33:58.771Z,6.10
2023-02-14T14:39:00.474Z,7.20
2023-02-14T14:44:03.024Z,6.53
2023-02-14T14:49:09.522Z,8.35
2023-02-14T14:54:17.347Z,9.10
2023-02-14T14:59:22.484Z,10.38
2023-02-14T15:04:28.330Z,13.00
2023-02-14T15:09:32.185Z,10.70
2023-02-14T15:14:36.327Z,12.70
2023-02-14T15:19:43.436Z,10.48
2023-02-14T15:24:45.482Z,11.02
2023-02-14T15:29:58.565Z,11.32
2023-02-14T15:40:03.344Z,10.48
2023-02-14T15:45:15.346Z,12.25
2023-02-14T15:50:19.651Z,11.80
2023-02-14T15:55:23.191Z,12.52
2023-02-14T16:00:25.545Z,12.73
2023-02-14T16:05:27.497Z,15.82
2023-02-14T16:10:32.075Z,14.80
2023-02-14T16:15:35.784Z,12.55
2023-02-14T16:20:43.379Z,12.00
2023-02-14T16:25:45.603Z,13.40
2023-02-14T16:30:52.541Z,15.10
2023-02-14T16:35:54.894Z,14.48
2023-02-14T16:40:56.581Z,14.07
2023-02-14T16:45:58.259Z,13.25
2023-02-14T16:51:00.123Z,16.45
2023-02-14T16:56:01.984Z,12.23
2023-02-14T17:01:04.096Z,12.75
2023-02-14T17:06:08.124Z,13.90
2023-02-14T17:11:09.852Z,12.10
2023-02-14T17:16:15.413Z,15.07
2023-02-14T17:21:20.456Z,17.73
2023-02-14T17:26:22.796Z,15.60
2023-02-14T17:31:24.795Z,17.17
2023-02-14T17:36:27.844Z,15.05
2023-02-14T17:41:29.563Z,15.25
2023-02-14T17:46:32.307Z,17.38
2023-02-14T17:51:34.052Z,17.08
2023-02-14T17:56:35.820Z,16.20
2023-02-14T18:01:37.486Z,16.10
2023-02-14T18:06:40.307Z,17.83
2023-02-14T18:11:42.263Z,18.55
2023-02-14T18:16:44.732Z,18.48
2023-02-14T18:21:46.430Z,15.95
2023-02-14T18:26:48.234Z,19.70
2023-02-14T18:31:50.046Z,18.88
2023-02-14T18:36:51.788Z,16.10
2023-02-14T18:41:53.461Z,19.58
2023-02-14T18:46:55.380Z,17.48
2023-02-14T18:51:58.808Z,17.35
2023-02-14T18:57:00.491Z,20.17
2023-02-14T19:02:02.237Z,18.67
2023-02-14T19:07:04.503Z,21.30
2023-02-14T19:12:07.020Z,22.23
2023-02-14T19:17:08.729Z,17.85
2023-02-14T19:22:11.024Z,20.80
2023-02-14T19:27:12.718Z,22.13
2023-02-14T19:32:14.452Z,20.50
2023-02-14T19:37:16.141Z,22.05
2023-02-14T19:42:17.800Z,22.80
2023-02-14T19:47:31.288Z,17.65
2023-02-14T19:52:41.432Z,22.05
2023-02-14T19:57:43.520Z,21.55
2023-02-14T20:02:48.213Z,21.45
2023-02-14T20:07:51.898Z,21.83
2023-02-14T20:12:53.581Z,22.08
2023-02-14T20:17:55.577Z,24.73
2023-02-14T20:22:57.214Z,20.20
2023-02-14T20:27:58.800Z,22.63
2023-02-14T20:33:00.694Z,22.88
2023-02-14T20:38:02.815Z,23.30
2023-02-14T20:43:04.569Z,25.55
2023-02-14T20:48:08.538Z,23.65
2023-02-14T20:53:10.298Z,20.63
2023-02-14T20:58:12.222Z,21.52
2023-02-14T21:03:13.855Z,23.67
2023-02-14T21:08:16.324Z,23.15
2023-02-14T21:13:18.012Z,22.73
2023-02-14T21:18:19.607Z,23.65
2023-02-14T21:23:21.212Z,21.83
2023-02-14T21:28:22.841Z,25.55
2023-02-14T21:33:25.383Z,24.25
2023-02-14T21:38:27.993Z,23.60
2023-02-14T21:43:29.621Z,25.30
2023-02-14T21:48:50.293Z,24.90
2023-02-14T21:53:52.508Z,24.05
2023-02-14T21:58:55.622Z,25.23
2023-02-14T22:03:58.908Z,23.30
2023-02-14T22:09:00.655Z,23.75
2023-02-14T22:14:02.912Z,24.25
2023-02-14T22:19:06.009Z,24.20
2023-02-14T22:24:07.812Z,24.92
2023-02-14T22:29:11.441Z,21.92
2023-02-14T22:34:17.662Z,22.35
2023-02-14T22:39:19.470Z,23.67
2023-02-14T22:44:21.092Z,22.80
2023-02-14T22:49:22.898Z,21.55
2023-02-14T22:54:24.548Z,20.55
2023-02-14T22:59:32.083Z,23.70
2023-02-14T23:04:33.694Z,25.38
2023-02-14T23:09:35.359Z,21.92
2023-02-14T23:14:55.620Z,24.30
2023-02-14T23:20:15.635Z,22.55
2023-02-14T23:25:17.311Z,23.88
2023-02-14T23:30:19.271Z,22.20
2023-02-14T23:35:20.906Z,22.15
2023-02-14T23:40:22.561Z,21.58
2023-02-14T23:45:36.104Z,22.90
2023-02-14T23:50:38.295Z,21.08
2023-02-14T23:55:39.913Z,23.15
